Time;durP1;ratioP1;P1;durP2;ratioP2;P2;SDS_P1;SDS_P2;PMS_P1;PMS_P2;Temp;Humidity;BMP_temperature;BMP_pressure;BME280_temperature;BME280_humidity;BME280_pressure;Samples;Min_cycle;Max_cycle;Signal;HPM_P1;HPM_P2
2023/04/23 00:00:13;;;;;;;9.07;7.63;;;;;;;;;;5078042;28;20031;-82
2023/04/23 00:02:39;;;;;;;10.15;7.93;;;;;;;;;;5078216;28;20107;-82
2023/04/23 00:05:06;;;;;;;10.90;8.35;;;;;;;;;;5061819;28;20020;-82
2023/04/23 00:07:32;;;;;;;10.23;8.18;;;;;;;;;;5077226;28;20471;-82
2023/04/23 00:09:59;;;;;;;11.13;7.75;;;;;;;;;;5060853;28;20034;-82
2023/04/23 00:12:25;;;;;;;10.05;8.38;;;;;;;;;;5060732;28;20051;-82
2023/04/23 00:14:51;;;;;;;11.23;8.23;;;;;;;;;;5059544;28;20047;-82
2023/04/23 00:17:16;;;;;;;11.00;8.57;;;;;;;;;;5077080;28;20028;-83
2023/04/23 00:19:41;;;;;;;10.23;8.05;;;;;;;;;;5042585;28;20123;-81
2023/04/23 00:22:07;;;;;;;9.95;8.30;;;;;;;;;;5075866;28;20134;-81
2023/04/23 00:24:35;;;;;;;10.50;8.23;;;;;;;;;;5059592;28;20042;-81
2023/04/23 00:27:00;;;;;;;9.70;8.15;;;;;;;;;;5059379;28;20474;-81
2023/04/23 00:29:26;;;;;;;13.32;8.65;;;;;;;;;;5076269;28;20032;-82
2023/04/23 00:31:51;;;;;;;9.88;8.13;;;;;;;;;;5094058;28;20024;-81
2023/04/23 00:34:17;;;;;;;10.10;8.40;;;;;;;;;;5094049;28;20169;-82
2023/04/23 00:36:42;;;;;;;12.18;8.63;;;;;;;;;;5076175;28;20035;-82
2023/04/23 00:39:08;;;;;;;10.85;8.63;;;;;;;;;;5093852;28;20117;-82
2023/04/23 00:41:34;;;;;;;11.98;8.95;;;;;;;;;;5075977;28;20455;-81
2023/04/23 00:43:59;;;;;;;10.73;8.15;;;;;;;;;;5059751;28;20039;-81
2023/04/23 00:46:25;;;;;;;9.90;8.38;;;;;;;;;;5094360;28;20024;-81
2023/04/23 00:48:51;;;;;;;9.63;8.00;;;;;;;;;;5094255;28;20027;-81
2023/04/23 00:51:16;;;;;;;11.85;8.75;;;;;;;;;;5075723;28;20535;-81
2023/04/23 00:53:42;;;;;;;11.73;8.70;;;;;;;;;;5059222;28;20035;-81
2023/04/23 00:56:08;;;;;;;10.35;9.00;;;;;;;;;;5075919;28;20020;-81
2023/04/23 00:58:34;;;;;;;12.73;8.90;;;;;;;;;;5076107;28;20040;-81
2023/04/23 01:01:01;;;;;;;10.40;8.30;;;;;;;;;;5075553;28;20503;-82
2023/04/23 01:03:28;;;;;;;10.98;8.98;;;;;;;;;;5076168;28;20024;-82
2023/04/23 01:05:54;;;;;;;11.90;8.57;;;;;;;;;;5059164;28;20028;-82
2023/04/23 01:08:21;;;;;;;10.07;8.13;;;;;;;;;;5076029;28;20031;-82
2023/04/23 01:10:47;;;;;;;11.35;8.45;;;;;;;;;;5093836;28;20466;-82
2023/04/23 01:13:13;;;;;;;11.75;9.05;;;;;;;;;;5079075;28;20035;-83
2023/04/23 01:15:39;;;;;;;12.60;8.32;;;;;;;;;;5060844;28;20040;-83
2023/04/23 01:18:06;;;;;;;10.68;8.00;;;;;;;;;;5062586;28;20024;-82
2023/04/23 01:20:34;;;;;;;12.05;8.18;;;;;;;;;;5061647;28;20020;-83
2023/04/23 01:23:02;;;;;;;11.30;8.40;;;;;;;;;;5077258;28;20039;-83
2023/04/23 01:25:27;;;;;;;11.10;8.43;;;;;;;;;;5077439;28;20028;-83
2023/04/23 01:27:52;;;;;;;11.27;8.63;;;;;;;;;;5061341;28;20034;-83
2023/04/23 01:30:18;;;;;;;12.25;8.93;;;;;;;;;;5077301;28;20051;-84
2023/04/23 01:32:44;;;;;;;11.23;8.75;;;;;;;;;;5093731;28;20036;-83
2023/04/23 01:35:11;;;;;;;11.27;8.75;;;;;;;;;;5059389;28;20029;-82
2023/04/23 01:37:37;;;;;;;11.40;9.05;;;;;;;;;;5059333;28;20028;-81
2023/04/23 01:40:03;;;;;;;12.18;9.35;;;;;;;;;;5077734;28;20039;-82
2023/04/23 01:42:28;;;;;;;13.02;9.10;;;;;;;;;;5075890;28;20210;-82
2023/04/23 01:44:54;;;;;;;10.98;8.85;;;;;;;;;;5058758;28;20032;-82
2023/04/23 01:47:20;;;;;;;12.82;8.75;;;;;;;;;;5075492;28;20028;-82
2023/04/23 01:49:45;;;;;;;11.70;9.15;;;;;;;;;;5075161;28;20088;-82
2023/04/23 01:52:10;;;;;;;12.27;8.15;;;;;;;;;;5058857;28;20043;-81
2023/04/23 01:54:38;;;;;;;12.43;8.88;;;;;;;;;;5075731;28;20081;-82
2023/04/23 01:57:03;;;;;;;11.20;8.70;;;;;;;;;;5074981;28;20024;-81
2023/04/23 01:59:29;;;;;;;13.55;9.70;;;;;;;;;;5075133;28;20028;-81
2023/04/23 02:01:55;;;;;;;12.23;8.82;;;;;;;;;;5075354;28;20457;-83
2023/04/23 02:04:20;;;;;;;12.10;8.50;;;;;;;;;;5093349;28;20032;-83
2023/04/23 02:06:48;;;;;;;11.75;9.45;;;;;;;;;;5076414;28;20073;-83
2023/04/23 02:09:13;;;;;;;12.38;9.48;;;;;;;;;;5061064;28;20031;-83
2023/04/23 02:11:39;;;;;;;11.13;8.75;;;;;;;;;;5060475;28;20024;-83
2023/04/23 02:14:05;;;;;;;11.65;9.05;;;;;;;;;;5063642;28;20043;-83
2023/04/23 02:16:31;;;;;;;12.80;9.35;;;;;;;;;;5081220;28;20055;-82
2023/04/23 02:18:57;;;;;;;13.50;9.60;;;;;;;;;;5079954;28;20024;-82
2023/04/23 02:21:23;;;;;;;11.10;9.02;;;;;;;;;;5077326;28;20043;-82
2023/04/23 02:23:49;;;;;;;13.13;9.25;;;;;;;;;;5071777;28;20028;-83
2023/04/23 02:26:15;;;;;;;10.13;8.68;;;;;;;;;;5096753;28;20475;-83
2023/04/23 02:28:40;;;;;;;12.75;9.55;;;;;;;;;;5061848;28;20035;-82
2023/04/23 02:31:06;;;;;;;13.35;9.60;;;;;;;;;;5078361;28;20554;-82
2023/04/23 02:33:31;;;;;;;12.65;9.00;;;;;;;;;;5096616;28;20032;-82
2023/04/23 02:35:57;;;;;;;11.60;9.13;;;;;;;;;;5096613;28;20028;-82
2023/04/23 02:38:22;;;;;;;10.70;8.80;;;;;;;;;;5061782;28;20070;-82
2023/04/23 02:40:47;;;;;;;13.80;9.35;;;;;;;;;;5061741;28;20440;-81
2023/04/23 02:43:13;;;;;;;13.13;9.13;;;;;;;;;;5078382;28;20038;-81
2023/04/23 02:45:38;;;;;;;14.27;8.88;;;;;;;;;;5096438;28;20073;-81
2023/04/23 02:48:03;;;;;;;10.43;7.95;;;;;;;;;;5078483;28;20450;-82
2023/04/23 02:50:29;;;;;;;11.48;9.25;;;;;;;;;;5096430;28;20036;-81
2023/04/23 02:52:55;;;;;;;11.57;9.32;;;;;;;;;;5097278;28;20060;-82
2023/04/23 02:55:20;;;;;;;11.68;9.10;;;;;;;;;;5077977;28;20032;-81
2023/04/23 02:57:46;;;;;;;10.70;9.07;;;;;;;;;;5078353;28;20447;-82
2023/04/23 03:00:13;;;;;;;12.75;8.80;;;;;;;;;;5061358;28;20512;-82
2023/04/23 03:02:39;;;;;;;11.95;9.00;;;;;;;;;;5078340;28;20035;-82
2023/04/23 03:05:05;;;;;;;13.70;9.95;;;;;;;;;;5061240;28;20439;-82
2023/04/23 03:07:30;;;;;;;12.43;8.98;;;;;;;;;;5061537;28;20031;-83
2023/04/23 03:09:56;;;;;;;13.55;9.82;;;;;;;;;;5078785;28;20028;-82
2023/04/23 03:12:21;;;;;;;12.15;9.10;;;;;;;;;;5062385;28;20032;-82
2023/04/23 03:14:47;;;;;;;12.85;9.73;;;;;;;;;;5062903;28;20052;-82
2023/04/23 03:17:12;;;;;;;12.65;9.57;;;;;;;;;;5080582;28;20093;-81
2023/04/23 03:19:37;;;;;;;12.90;9.07;;;;;;;;;;5081616;28;20386;-82
2023/04/23 03:22:04;;;;;;;13.00;9.43;;;;;;;;;;5105708;28;20023;-81
2023/04/23 03:24:33;;;;;;;12.55;9.73;;;;;;;;;;5084994;28;20024;-81
2023/04/23 03:26:59;;;;;;;12.57;9.50;;;;;;;;;;5082041;28;20028;-81
2023/04/23 03:29:24;;;;;;;11.98;9.30;;;;;;;;;;5106191;28;20031;-81
2023/04/23 03:31:49;;;;;;;14.10;8.90;;;;;;;;;;5117674;28;20028;-82
2023/04/23 03:34:15;;;;;;;11.57;8.85;;;;;;;;;;5117782;28;20027;-82
2023/04/23 03:36:40;;;;;;;11.43;8.40;;;;;;;;;;5086011;28;20028;-82
2023/04/23 03:39:06;;;;;;;14.90;9.50;;;;;;;;;;5096851;28;20028;-81
2023/04/23 03:41:32;;;;;;;13.27;9.05;;;;;;;;;;5061630;28;20055;-82
2023/04/23 03:43:57;;;;;;;11.85;8.70;;;;;;;;;;5061133;28;20544;-82
2023/04/23 03:46:23;;;;;;;11.93;8.55;;;;;;;;;;5095798;28;20026;-82
2023/04/23 03:48:48;;;;;;;12.70;9.32;;;;;;;;;;5060648;28;20086;-82
2023/04/23 03:51:13;;;;;;;12.45;9.00;;;;;;;;;;5095539;28;20115;-82
2023/04/23 03:53:39;;;;;;;11.05;8.27;;;;;;;;;;5095378;28;20048;-83
2023/04/23 03:56:04;;;;;;;11.70;9.05;;;;;;;;;;5077083;28;20038;-82
2023/04/23 03:58:30;;;;;;;10.35;8.70;;;;;;;;;;5060262;28;20081;-84
2023/04/23 04:00:56;;;;;;;11.73;8.95;;;;;;;;;;5095072;28;20024;-82
2023/04/23 04:03:21;;;;;;;10.77;8.65;;;;;;;;;;5060185;28;20032;-83
2023/04/23 04:05:47;;;;;;;10.82;8.77;;;;;;;;;;5060079;28;20024;-83
2023/04/23 04:08:12;;;;;;;12.02;8.32;;;;;;;;;;5095076;28;20415;-83
2023/04/23 04:10:37;;;;;;;10.45;8.48;;;;;;;;;;5076536;28;20031;-82
2023/04/23 04:13:03;;;;;;;11.10;8.65;;;;;;;;;;5076630;28;20028;-82
2023/04/23 04:15:28;;;;;;;11.60;8.05;;;;;;;;;;5094520;28;20487;-82
2023/04/23 04:17:54;;;;;;;11.32;8.77;;;;;;;;;;5095151;28;20028;-81
2023/04/23 04:20:19;;;;;;;10.32;7.75;;;;;;;;;;5094544;28;20111;-82
2023/04/23 04:22:45;;;;;;;10.02;7.97;;;;;;;;;;5077084;28;20051;-82
2023/04/23 04:25:11;;;;;;;10.77;8.13;;;;;;;;;;5076637;28;20028;-82
2023/04/23 04:27:37;;;;;;;10.30;7.85;;;;;;;;;;5094553;28;20024;-82
2023/04/23 04:30:04;;;;;;;9.63;7.40;;;;;;;;;;5094598;28;20083;-82
2023/04/23 04:32:30;;;;;;;9.85;7.78;;;;;;;;;;5094504;28;20058;-83
2023/04/23 04:34:56;;;;;;;10.18;7.63;;;;;;;;;;5060322;28;20028;-83
2023/04/23 04:37:21;;;;;;;9.88;7.10;;;;;;;;;;5096783;28;20526;-82
2023/04/23 04:39:46;;;;;;;9.77;7.28;;;;;;;;;;5061096;28;20028;-82
2023/04/23 04:42:12;;;;;;;10.15;7.28;;;;;;;;;;5102022;28;20070;-82
2023/04/23 04:44:37;;;;;;;10.38;7.35;;;;;;;;;;5097281;28;20028;-82
2023/04/23 04:47:04;;;;;;;8.82;7.18;;;;;;;;;;5094483;28;20020;-82
2023/04/23 04:49:29;;;;;;;7.95;6.45;;;;;;;;;;5059896;28;20436;-82
2023/04/23 04:51:55;;;;;;;10.38;7.18;;;;;;;;;;5076181;28;20062;-83
2023/04/23 04:54:20;;;;;;;12.15;7.35;;;;;;;;;;5076101;28;20058;-82
2023/04/23 04:56:46;;;;;;;9.18;7.20;;;;;;;;;;5094298;28;20501;-82
2023/04/23 04:59:11;;;;;;;8.93;7.00;;;;;;;;;;5058925;28;20032;-82
2023/04/23 05:01:37;;;;;;;8.18;6.53;;;;;;;;;;5075727;28;20089;-83
2023/04/23 05:04:02;;;;;;;8.48;6.65;;;;;;;;;;5042524;28;20028;-83
2023/04/23 05:06:28;;;;;;;7.80;6.20;;;;;;;;;;5075788;28;20051;-83
2023/04/23 05:08:53;;;;;;;8.73;6.45;;;;;;;;;;5094318;28;20028;-83
2023/04/23 05:11:19;;;;;;;7.40;6.28;;;;;;;;;;5075980;28;20051;-83
2023/04/23 05:13:47;;;;;;;7.30;6.22;;;;;;;;;;5059516;28;20035;-83
2023/04/23 05:16:13;;;;;;;8.05;5.68;;;;;;;;;;5075568;28;20040;-83
2023/04/23 05:18:39;;;;;;;7.28;5.95;;;;;;;;;;5076408;28;20046;-82
2023/04/23 05:21:05;;;;;;;6.95;5.72;;;;;;;;;;5075755;28;20024;-83
2023/04/23 05:23:31;;;;;;;6.55;5.65;;;;;;;;;;5075577;28;20036;-83
2023/04/23 05:25:57;;;;;;;7.28;5.72;;;;;;;;;;5076767;28;20054;-83
2023/04/23 05:28:23;;;;;;;5.93;5.18;;;;;;;;;;5058868;28;20024;-82
2023/04/23 05:30:49;;;;;;;6.68;5.45;;;;;;;;;;5058787;28;20392;-82
2023/04/23 05:33:15;;;;;;;6.07;5.47;;;;;;;;;;5075560;28;20031;-82
2023/04/23 05:35:40;;;;;;;7.40;5.72;;;;;;;;;;5058749;28;20024;-82
2023/04/23 05:38:06;;;;;;;9.32;5.47;;;;;;;;;;5093717;28;20055;-82
2023/04/23 05:40:31;;;;;;;7.53;5.70;;;;;;;;;;5058916;28;20028;-82
2023/04/23 05:43:01;;;;;;;8.95;5.72;;;;;;;;;;5077912;28;20028;-82
2023/04/23 05:45:27;;;;;;;5.60;4.90;;;;;;;;;;5065059;28;20020;-83
2023/04/23 05:47:52;;;;;;;5.70;5.10;;;;;;;;;;5062068;28;20035;-82
2023/04/23 05:50:18;;;;;;;6.15;5.10;;;;;;;;;;5079617;28;20043;-83
2023/04/23 05:52:44;;;;;;;7.22;5.13;;;;;;;;;;5079961;28;20451;-83
2023/04/23 05:55:10;;;;;;;6.60;5.35;;;;;;;;;;5079423;28;20024;-83
2023/04/23 05:57:36;;;;;;;6.32;4.70;;;;;;;;;;5063080;28;20024;-84
2023/04/23 06:00:02;;;;;;;5.85;4.95;;;;;;;;;;5063939;28;20028;-83
2023/04/23 06:02:28;;;;;;;5.57;4.75;;;;;;;;;;5099000;28;20024;-83
2023/04/23 06:04:53;;;;;;;6.25;4.85;;;;;;;;;;5098025;28;20030;-84
2023/04/23 06:07:19;;;;;;;5.10;4.60;;;;;;;;;;5097653;28;20020;-84
2023/04/23 06:09:44;;;;;;;5.78;4.70;;;;;;;;;;5063185;28;20020;-83
2023/04/23 06:12:10;;;;;;;5.40;4.25;;;;;;;;;;5097374;28;20032;-82
2023/04/23 06:14:35;;;;;;;4.85;4.28;;;;;;;;;;5078948;28;20078;-83
2023/04/23 06:17:01;;;;;;;5.40;4.47;;;;;;;;;;5062124;28;20032;-82
2023/04/23 06:19:26;;;;;;;5.00;4.40;;;;;;;;;;5096911;28;20111;-83
2023/04/23 06:21:52;;;;;;;5.22;4.70;;;;;;;;;;5046328;28;20036;-82
2023/04/23 06:24:18;;;;;;;5.28;4.55;;;;;;;;;;5078742;28;20470;-82
2023/04/23 06:26:43;;;;;;;7.88;4.22;;;;;;;;;;5096796;28;20028;-82
2023/04/23 06:29:08;;;;;;;5.30;4.40;;;;;;;;;;5096844;28;20028;-82
2023/04/23 06:31:34;;;;;;;4.63;4.10;;;;;;;;;;5078638;28;20035;-81
2023/04/23 06:34:00;;;;;;;4.40;3.95;;;;;;;;;;5062376;28;20053;-82
2023/04/23 06:36:25;;;;;;;4.65;4.18;;;;;;;;;;5062454;28;20028;-82
2023/04/23 06:38:51;;;;;;;4.60;4.15;;;;;;;;;;5062671;28;20027;-83
2023/04/23 06:41:16;;;;;;;5.13;4.35;;;;;;;;;;5098681;28;20032;-82
2023/04/23 06:43:42;;;;;;;4.22;3.83;;;;;;;;;;5097703;28;20032;-83
2023/04/23 06:46:07;;;;;;;4.93;4.07;;;;;;;;;;5081164;28;20070;-83
2023/04/23 06:48:32;;;;;;;3.97;3.58;;;;;;;;;;5062257;28;20036;-82
2023/04/23 06:50:58;;;;;;;4.18;3.53;;;;;;;;;;5045097;28;20036;-83
2023/04/23 06:53:23;;;;;;;4.82;3.75;;;;;;;;;;5097156;28;20039;-83
2023/04/23 06:55:50;;;;;;;4.18;3.25;;;;;;;;;;5062481;28;20028;-83
2023/04/23 06:58:16;;;;;;;4.10;3.50;;;;;;;;;;5078163;28;20031;-83
2023/04/23 07:00:41;;;;;;;5.03;3.50;;;;;;;;;;5044866;28;20024;-83
2023/04/23 07:03:06;;;;;;;3.80;3.22;;;;;;;;;;5078448;28;20114;-83
2023/04/23 07:05:32;;;;;;;3.88;3.38;;;;;;;;;;5061657;28;20443;-83
2023/04/23 07:07:57;;;;;;;4.70;2.83;;;;;;;;;;5062120;28;20067;-82
2023/04/23 07:10:23;;;;;;;3.88;3.47;;;;;;;;;;5096164;28;20039;-82
2023/04/23 07:12:49;;;;;;;3.30;2.95;;;;;;;;;;5096311;28;20032;-83
2023/04/23 07:15:14;;;;;;;3.50;3.20;;;;;;;;;;5077434;28;20044;-81
2023/04/23 07:17:40;;;;;;;3.50;3.20;;;;;;;;;;5061088;28;20119;-81
2023/04/23 07:20:07;;;;;;;3.70;2.97;;;;;;;;;;5095642;28;20076;-81
2023/04/23 07:22:33;;;;;;;3.60;3.13;;;;;;;;;;5061271;28;20134;-81
2023/04/23 07:24:59;;;;;;;3.70;3.20;;;;;;;;;;5077925;28;20036;-83
2023/04/23 07:27:25;;;;;;;3.38;3.08;;;;;;;;;;5095901;28;20049;-82
2023/04/23 07:29:50;;;;;;;3.60;3.15;;;;;;;;;;5061143;28;20028;-82
2023/04/23 07:32:16;;;;;;;5.45;3.75;;;;;;;;;;5078001;28;20051;-84
2023/04/23 07:34:41;;;;;;;6.00;3.33;;;;;;;;;;5077675;28;20024;-85
2023/04/23 07:37:07;;;;;;;5.28;3.15;;;;;;;;;;5060775;28;20165;-83
2023/04/23 07:39:33;;;;;;;4.78;2.95;;;;;;;;;;5061521;28;20067;-84
2023/04/23 07:41:59;;;;;;;4.65;3.10;;;;;;;;;;5095333;28;20035;-84
2023/04/23 07:44:24;;;;;;;11.55;3.40;;;;;;;;;;5060667;28;20039;-84
2023/04/23 07:46:50;;;;;;;5.90;3.40;;;;;;;;;;5060606;28;20024;-85
2023/04/23 07:49:15;;;;;;;8.25;3.45;;;;;;;;;;5077129;28;20103;-85
2023/04/23 07:51:41;;;;;;;5.25;3.35;;;;;;;;;;5077333;28;20081;-84
2023/04/23 07:54:07;;;;;;;7.85;3.15;;;;;;;;;;5096036;28;20107;-82
2023/04/23 07:56:33;;;;;;;8.70;2.78;;;;;;;;;;5060664;28;20464;-83
2023/04/23 07:58:59;;;;;;;4.28;3.25;;;;;;;;;;5076765;28;20081;-81
2023/04/23 08:01:25;;;;;;;3.92;2.80;;;;;;;;;;5076872;28;20509;-81
2023/04/23 08:03:50;;;;;;;4.18;3.10;;;;;;;;;;5076958;28;20027;-81
2023/04/23 08:06:17;;;;;;;4.57;2.80;;;;;;;;;;5060014;28;20035;-81
2023/04/23 08:08:42;;;;;;;4.60;2.65;;;;;;;;;;5060036;28;20051;-81
2023/04/23 08:11:08;;;;;;;4.93;2.97;;;;;;;;;;5059748;28;20035;-84
2023/04/23 08:13:33;;;;;;;4.03;2.50;;;;;;;;;;5076789;28;20506;-83
2023/04/23 08:15:59;;;;;;;6.00;2.90;;;;;;;;;;5094519;28;20044;-82
2023/04/23 08:18:24;;;;;;;6.88;2.85;;;;;;;;;;5076942;28;20035;-81
2023/04/23 08:20:50;;;;;;;3.75;2.70;;;;;;;;;;5076573;28;20028;-83
2023/04/23 08:23:16;;;;;;;9.43;3.47;;;;;;;;;;5077029;28;20134;-79
2023/04/23 08:25:41;;;;;;;16.70;6.03;;;;;;;;;;5076470;28;20121;-82
2023/04/23 08:28:07;;;;;;;16.52;6.15;;;;;;;;;;5094705;28;20466;-84
2023/04/23 08:30:32;;;;;;;14.95;4.90;;;;;;;;;;5076257;28;20035;-82
2023/04/23 08:32:57;;;;;;;17.48;4.85;;;;;;;;;;5076733;28;20058;-82
2023/04/23 08:35:23;;;;;;;10.10;4.55;;;;;;;;;;5076144;28;20074;-83
2023/04/23 08:37:49;;;;;;;14.43;4.22;;;;;;;;;;5043694;28;20036;-83
2023/04/23 08:40:15;;;;;;;19.05;4.40;;;;;;;;;;5059435;28;20024;-84
2023/04/23 08:42:52;;;;;;;10.45;3.78;;;;;;;;;;5059497;28;20047;-83
2023/04/23 08:45:18;;;;;;;13.43;4.20;;;;;;;;;;5076296;28;20066;-83
2023/04/23 08:47:43;;;;;;;11.38;4.10;;;;;;;;;;5078827;28;20042;-85
2023/04/23 08:50:11;;;;;;;9.40;4.18;;;;;;;;;;5044832;28;20028;-85
2023/04/23 08:52:40;;;;;;;16.33;3.58;;;;;;;;;;5094888;28;20352;-86
2023/04/23 08:55:09;;;;;;;7.18;3.60;;;;;;;;;;5076605;28;20027;-87
2023/04/23 08:57:36;;;;;;;9.45;3.75;;;;;;;;;;5059774;28;20110;-86
2023/04/23 09:00:05;;;;;;;9.77;3.33;;;;;;;;;;5042917;28;20032;-90
2023/04/23 09:02:31;;;;;;;10.27;3.50;;;;;;;;;;5076488;28;20031;-87
2023/04/23 09:04:57;;;;;;;9.88;3.38;;;;;;;;;;5093943;28;20028;-83
2023/04/23 09:07:23;;;;;;;7.78;2.90;;;;;;;;;;5076828;28;20024;-87
2023/04/23 09:09:48;;;;;;;5.43;2.80;;;;;;;;;;5076675;28;20105;-87
2023/04/23 09:12:14;;;;;;;8.32;2.65;;;;;;;;;;5061510;28;20043;-85
2023/04/23 09:14:39;;;;;;;7.55;2.78;;;;;;;;;;5078520;28;20056;-85
2023/04/23 09:17:05;;;;;;;6.18;3.30;;;;;;;;;;5077460;28;20111;-87
2023/04/23 09:19:31;;;;;;;15.98;2.72;;;;;;;;;;5077667;28;20051;-86
2023/04/23 09:21:57;;;;;;;6.85;2.67;;;;;;;;;;5076763;28;20107;-85
2023/04/23 09:24:24;;;;;;;7.82;2.80;;;;;;;;;;5059386;28;20020;-83
2023/04/23 09:26:51;;;;;;;5.75;2.30;;;;;;;;;;5059133;28;20047;-83
2023/04/23 09:29:22;;;;;;;8.02;2.38;;;;;;;;;;5075804;28;20067;-83
2023/04/23 09:31:49;;;;;;;5.32;2.42;;;;;;;;;;5075872;28;20024;-83
2023/04/23 09:34:17;;;;;;;9.65;2.60;;;;;;;;;;5075935;28;20068;-83
2023/04/23 09:36:43;;;;;;;5.55;2.13;;;;;;;;;;5075197;28;20029;-83
2023/04/23 09:39:14;;;;;;;4.03;2.00;;;;;;;;;;5075408;28;20051;-82
2023/04/23 09:41:39;;;;;;;7.63;2.22;;;;;;;;;;5075536;28;20031;-80
2023/04/23 09:44:05;;;;;;;8.45;2.35;;;;;;;;;;5058960;28;20032;-81
2023/04/23 09:46:34;;;;;;;4.22;2.25;;;;;;;;;;5093588;28;20024;-83
2023/04/23 09:49:06;;;;;;;7.97;2.30;;;;;;;;;;5076187;28;20020;-85
2023/04/23 09:51:34;;;;;;;9.35;1.85;;;;;;;;;;5059467;28;20051;-85
2023/04/23 09:54:02;;;;;;;4.95;1.90;;;;;;;;;;5077034;28;20087;-83
2023/04/23 09:56:29;;;;;;;4.18;1.90;;;;;;;;;;5059330;28;20398;-82
2023/04/23 09:58:55;;;;;;;4.22;2.25;;;;;;;;;;5059727;28;20031;-84
2023/04/23 10:01:27;;;;;;;3.95;2.03;;;;;;;;;;5044409;28;20032;-84
2023/04/23 10:03:52;;;;;;;6.07;2.05;;;;;;;;;;5067616;28;20054;-84
2023/04/23 10:06:18;;;;;;;7.65;2.13;;;;;;;;;;5092512;28;20032;-84
2023/04/23 10:08:44;;;;;;;6.15;2.10;;;;;;;;;;5093230;28;20028;-84
2023/04/23 10:11:10;;;;;;;5.13;1.98;;;;;;;;;;5093018;28;20478;-84
2023/04/23 10:13:35;;;;;;;6.82;2.75;;;;;;;;;;5092118;28;20054;-84
2023/04/23 10:16:03;;;;;;;5.68;2.47;;;;;;;;;;5100427;28;20112;-84
2023/04/23 10:18:30;;;;;;;4.72;2.72;;;;;;;;;;5099263;28;20051;-83
2023/04/23 10:20:57;;;;;;;5.05;2.00;;;;;;;;;;5113772;28;20048;-83
2023/04/23 10:23:23;;;;;;;5.63;2.65;;;;;;;;;;5089899;28;20097;-82
2023/04/23 10:25:50;;;;;;;7.50;2.28;;;;;;;;;;5108623;28;20433;-84
2023/04/23 10:28:16;;;;;;;4.95;2.28;;;;;;;;;;5099485;28;20028;-85
2023/04/23 10:30:43;;;;;;;4.28;1.95;;;;;;;;;;5079103;28;20049;-85
2023/04/23 10:33:10;;;;;;;5.07;2.22;;;;;;;;;;5078429;28;20474;-83
2023/04/23 10:35:36;;;;;;;7.47;2.50;;;;;;;;;;5080184;28;20031;-87
2023/04/23 10:38:01;;;;;;;4.47;2.10;;;;;;;;;;5098386;28;20032;-86
2023/04/23 10:40:31;;;;;;;5.28;2.33;;;;;;;;;;5097002;28;20052;-86
2023/04/23 10:42:57;;;;;;;6.43;2.00;;;;;;;;;;5096084;28;20372;-85
2023/04/23 10:45:22;;;;;;;6.47;2.08;;;;;;;;;;5095819;28;20036;-84
2023/04/23 10:47:47;;;;;;;4.10;2.03;;;;;;;;;;5098679;28;20031;-85
2023/04/23 10:50:28;;;;;;;4.13;1.70;;;;;;;;;;5100467;28;20058;-86
2023/04/23 10:52:55;;;;;;;5.30;1.98;;;;;;;;;;5100328;28;20052;-85
2023/04/23 10:55:29;;;;;;;5.22;2.00;;;;;;;;;;5096165;28;20027;-86
2023/04/23 10:58:05;;;;;;;3.80;1.85;;;;;;;;;;5097306;28;20028;-86
2023/04/23 11:00:46;;;;;;;6.80;2.22;;;;;;;;;;5095313;28;20020;-85
2023/04/23 11:03:31;;;;;;;6.30;1.65;;;;;;;;;;5097035;28;20066;-86
2023/04/23 11:06:01;;;;;;;5.80;2.50;;;;;;;;;;5078354;28;20093;-85
2023/04/23 11:08:28;;;;;;;20.77;7.07;;;;;;;;;;5095561;28;20088;-83
2023/04/23 11:10:57;;;;;;;25.70;11.02;;;;;;;;;;5096977;28;20028;-87
2023/04/23 11:13:26;;;;;;;26.25;10.88;;;;;;;;;;5098159;28;20479;-86
2023/04/23 11:16:15;;;;;;;28.25;14.10;;;;;;;;;;5095122;28;20590;-84
2023/04/23 11:19:02;;;;;;;31.90;12.85;;;;;;;;;;5078942;28;20387;-85
2023/04/23 11:21:54;;;;;;;34.08;14.50;;;;;;;;;;5096637;28;20424;-86
2023/04/23 11:24:21;;;;;;;30.85;13.25;;;;;;;;;;5058100;28;20455;-86
2023/04/23 11:26:47;;;;;;;36.78;14.18;;;;;;;;;;5104773;28;20028;-88
2023/04/23 11:29:14;;;;;;;30.23;14.77;;;;;;;;;;5100867;28;20039;-88
2023/04/23 11:31:39;;;;;;;38.15;16.23;;;;;;;;;;5104579;28;20040;-87
2023/04/23 11:34:07;;;;;;;33.95;14.50;;;;;;;;;;5107324;28;20048;-85
2023/04/23 11:36:33;;;;;;;30.48;12.93;;;;;;;;;;5109271;28;20494;-85
2023/04/23 11:38:58;;;;;;;35.88;14.25;;;;;;;;;;5112048;28;20024;-85
2023/04/23 11:41:24;;;;;;;30.83;13.23;;;;;;;;;;5095298;28;20092;-88
2023/04/23 11:43:49;;;;;;;36.47;13.15;;;;;;;;;;5109650;28;20032;-87
2023/04/23 11:46:14;;;;;;;27.17;11.18;;;;;;;;;;5099807;28;20020;-86
2023/04/23 11:48:40;;;;;;;25.27;11.45;;;;;;;;;;5081313;28;20032;-83
2023/04/23 11:51:06;;;;;;;25.05;10.60;;;;;;;;;;5101554;28;20116;-83
2023/04/23 11:53:32;;;;;;;24.52;9.85;;;;;;;;;;5101839;28;20151;-87
2023/04/23 11:55:58;;;;;;;25.15;10.02;;;;;;;;;;5081775;28;20086;-87
2023/04/23 11:58:24;;;;;;;29.40;10.15;;;;;;;;;;5097204;28;20032;-85
2023/04/23 12:00:56;;;;;;;24.10;9.95;;;;;;;;;;5097739;28;20497;-81
2023/04/23 12:03:24;;;;;;;24.83;10.07;;;;;;;;;;5095433;28;20038;-85
2023/04/23 12:05:50;;;;;;;26.55;9.32;;;;;;;;;;5078051;28;20019;-82
2023/04/23 12:08:17;;;;;;;23.83;9.05;;;;;;;;;;5096115;28;20419;-84
2023/04/23 12:10:46;;;;;;;23.45;9.73;;;;;;;;;;5077085;28;20028;-81
2023/04/23 12:13:21;;;;;;;21.88;8.93;;;;;;;;;;5095065;28;20031;-80
2023/04/23 12:15:58;;;;;;;18.80;8.07;;;;;;;;;;5093459;28;20119;-84
2023/04/23 12:18:31;;;;;;;17.73;8.00;;;;;;;;;;5095236;28;20391;-82
2023/04/23 12:21:04;;;;;;;16.63;6.78;;;;;;;;;;5094631;28;20142;-82
2023/04/23 12:23:30;;;;;;;15.25;7.53;;;;;;;;;;5095204;28;20111;-83
2023/04/23 12:25:55;;;;;;;19.17;7.45;;;;;;;;;;5094982;28;20111;-86
2023/04/23 12:28:25;;;;;;;17.52;7.53;;;;;;;;;;5093458;28;20054;-86
2023/04/23 12:30:50;;;;;;;15.13;7.50;;;;;;;;;;5095464;28;20104;-85
2023/04/23 12:33:16;;;;;;;14.20;6.70;;;;;;;;;;5093945;28;20084;-84
2023/04/23 12:35:49;;;;;;;14.65;5.75;;;;;;;;;;5094241;28;20020;-84
2023/04/23 12:38:28;;;;;;;11.07;5.63;;;;;;;;;;5093197;28;20035;-84
2023/04/23 12:40:55;;;;;;;12.02;5.43;;;;;;;;;;5094368;28;20044;-84
2023/04/23 12:43:20;;;;;;;18.65;5.20;;;;;;;;;;5076179;28;20474;-83
2023/04/23 12:45:46;;;;;;;12.40;5.30;;;;;;;;;;5059505;28;20077;-84
2023/04/23 12:48:12;;;;;;;10.93;5.35;;;;;;;;;;5094133;28;20032;-83
2023/04/23 12:50:38;;;;;;;9.10;4.65;;;;;;;;;;5092931;28;20088;-84
2023/04/23 12:53:03;;;;;;;14.68;4.60;;;;;;;;;;5096971;28;20417;-83
2023/04/23 12:55:29;;;;;;;12.48;4.88;;;;;;;;;;5098463;28;20036;-83
2023/04/23 12:57:54;;;;;;;9.23;4.20;;;;;;;;;;5092997;28;20492;-83
2023/04/23 13:00:21;;;;;;;8.60;4.00;;;;;;;;;;5094195;28;20387;-84
2023/04/23 13:02:46;;;;;;;9.00;3.72;;;;;;;;;;5093057;28;20391;-83
2023/04/23 13:05:12;;;;;;;9.77;4.00;;;;;;;;;;5075962;28;20032;-82
2023/04/23 13:07:37;;;;;;;10.18;3.80;;;;;;;;;;5075856;28;20025;-82
2023/04/23 13:10:03;;;;;;;8.23;3.35;;;;;;;;;;5075893;28;20024;-82
2023/04/23 13:12:28;;;;;;;9.60;3.60;;;;;;;;;;5094551;28;20042;-83
2023/04/23 13:14:55;;;;;;;13.57;3.85;;;;;;;;;;5093886;28;20032;-81
2023/04/23 13:17:21;;;;;;;7.47;3.53;;;;;;;;;;5092616;28;20056;-81
2023/04/23 13:19:47;;;;;;;12.77;3.83;;;;;;;;;;5094004;28;20036;-84
2023/04/23 13:22:12;;;;;;;6.97;2.67;;;;;;;;;;5093816;28;20107;-83
2023/04/23 13:24:37;;;;;;;7.97;3.47;;;;;;;;;;5093839;28;20503;-84
2023/04/23 13:27:03;;;;;;;7.38;3.08;;;;;;;;;;5095257;28;20028;-84
2023/04/23 13:29:28;;;;;;;7.13;2.88;;;;;;;;;;5094801;28;20039;-84
2023/04/23 13:31:54;;;;;;;7.63;2.85;;;;;;;;;;5092499;28;20073;-83
2023/04/23 13:34:20;;;;;;;8.82;3.05;;;;;;;;;;5075551;28;20032;-83
2023/04/23 13:36:45;;;;;;;9.43;3.42;;;;;;;;;;5075762;28;20036;-84
2023/04/23 13:39:12;;;;;;;7.45;2.97;;;;;;;;;;5093589;28;20031;-85
2023/04/23 13:41:39;;;;;;;4.70;2.17;;;;;;;;;;5093553;28;20024;-85
2023/04/23 13:44:04;;;;;;;8.45;2.60;;;;;;;;;;5092394;28;20054;-84
2023/04/23 13:46:29;;;;;;;5.35;2.50;;;;;;;;;;5075514;28;20419;-84
2023/04/23 13:48:55;;;;;;;6.07;2.08;;;;;;;;;;5092555;28;20036;-83
2023/04/23 13:51:21;;;;;;;6.85;2.70;;;;;;;;;;5075709;28;20024;-84
2023/04/23 13:53:46;;;;;;;4.60;2.47;;;;;;;;;;5092247;28;20038;-84
2023/04/23 13:56:11;;;;;;;11.68;2.60;;;;;;;;;;5092291;28;20024;-84
2023/04/23 13:58:41;;;;;;;5.38;2.40;;;;;;;;;;5093427;28;20459;-84
2023/04/23 14:01:07;;;;;;;5.97;2.50;;;;;;;;;;5092552;28;20031;-84
2023/04/23 14:03:32;;;;;;;5.20;2.30;;;;;;;;;;5075106;28;20024;-84
2023/04/23 14:05:58;;;;;;;6.45;2.40;;;;;;;;;;5093829;28;20028;-84
2023/04/23 14:08:23;;;;;;;3.33;2.20;;;;;;;;;;5094297;28;20052;-83
2023/04/23 14:10:48;;;;;;;6.47;2.47;;;;;;;;;;5079523;28;20035;-85
2023/04/23 14:13:14;;;;;;;3.53;2.10;;;;;;;;;;5096189;28;20084;-85
2023/04/23 14:15:41;;;;;;;9.48;2.50;;;;;;;;;;5097883;28;20071;-82
2023/04/23 14:18:07;;;;;;;5.45;2.40;;;;;;;;;;5096424;28;20024;-84
2023/04/23 14:20:32;;;;;;;5.47;1.98;;;;;;;;;;5096120;28;20040;-84
2023/04/23 14:23:03;;;;;;;5.35;2.08;;;;;;;;;;5095903;28;20122;-83
2023/04/23 14:25:33;;;;;;;4.47;2.00;;;;;;;;;;5095937;28;20032;-84
2023/04/23 14:28:01;;;;;;;3.42;1.77;;;;;;;;;;5078855;28;20020;-84
2023/04/23 14:30:28;;;;;;;4.97;1.92;;;;;;;;;;5095856;28;20032;-84